Time;durP1;ratioP1;P1;durP2;ratioP2;P2;SDS_P1;SDS_P2;PMS_P1;PMS_P2;Temp;Humidity;BMP_temperature;BMP_pressure;BME280_temperature;BME280_humidity;BME280_pressure;Samples;Min_cycle;Max_cycle;Signal;HPM_P1;HPM_P2
2022/10/18 00:00:58;;;;;;;7.20;6.03;;;;;;;19.85;64.85;102309.28;4908212;28;97764;-47
2022/10/18 00:03:24;;;;;;;15.60;6.37;;;;;;;19.82;64.87;102307.50;4900623;28;97171;-46
2022/10/18 00:05:50;;;;;;;9.70;5.63;;;;;;;19.80;64.99;102303.69;4906174;28;97217;-47
2022/10/18 00:08:16;;;;;;;7.97;6.43;;;;;;;19.80;64.66;102314.88;4906276;28;97455;-47
2022/10/18 00:10:41;;;;;;;7.83;5.57;;;;;;;19.79;65.01;102310.56;4899189;28;96867;-46
2022/10/18 00:13:07;;;;;;;6.10;5.50;;;;;;;19.76;64.99;102309.56;4904299;28;97376;-47
2022/10/18 00:15:32;;;;;;;8.00;5.87;;;;;;;19.75;65.16;102304.47;4906388;28;97765;-46
2022/10/18 00:17:58;;;;;;;14.73;6.17;;;;;;;19.74;65.00;102303.75;4905894;28;97016;-47
2022/10/18 00:20:23;;;;;;;7.30;6.60;;;;;;;19.73;64.96;102302.22;4906029;28;97115;-47
2022/10/18 00:22:49;;;;;;;6.73;6.03;;;;;;;19.68;65.01;102296.69;4906513;28;100742;-47
2022/10/18 00:25:15;;;;;;;17.37;6.07;;;;;;;19.67;65.16;102297.94;4909655;28;97481;-47
2022/10/18 00:27:40;;;;;;;8.97;6.23;;;;;;;19.65;65.04;102306.06;4907234;28;97039;-47
2022/10/18 00:30:06;;;;;;;9.30;5.90;;;;;;;19.62;65.10;102307.09;4900967;28;97164;-46
2022/10/18 00:32:36;;;;;;;9.30;6.33;;;;;;;19.63;65.25;102314.97;4908733;28;98690;-50
2022/10/18 00:35:02;;;;;;;8.50;6.70;;;;;;;19.61;65.01;102316.75;4908793;28;97074;-47
2022/10/18 00:37:28;;;;;;;10.30;6.20;;;;;;;19.60;65.27;102310.41;4906759;28;97554;-46
2022/10/18 00:39:53;;;;;;;13.47;6.17;;;;;;;19.58;65.40;102315.00;4905281;28;97462;-47
2022/10/18 00:42:21;;;;;;;7.43;6.70;;;;;;;19.57;65.07;102311.44;4908276;28;110970;-46
2022/10/18 00:44:49;;;;;;;12.47;6.97;;;;;;;19.59;65.12;102310.94;4908981;28;97371;-45
2022/10/18 00:47:16;;;;;;;6.90;6.20;;;;;;;19.57;65.18;102317.03;4904537;28;97506;-48
2022/10/18 00:49:54;;;;;;;31.77;6.50;;;;;;;19.56;65.42;102320.34;4911071;28;97121;-48
2022/10/18 00:52:34;;;;;;;24.87;8.37;;;;;;;19.55;65.27;102316.03;4908071;28;102134;-46
2022/10/18 00:54:59;;;;;;;9.47;8.03;;;;;;;19.54;65.22;102325.66;4906646;28;96816;-46
2022/10/18 00:57:25;;;;;;;10.97;8.13;;;;;;;19.55;65.23;102330.00;4909333;28;96853;-46
2022/10/18 00:59:51;;;;;;;8.80;6.80;;;;;;;19.51;65.18;102332.28;4910058;28;96983;-46
2022/10/18 01:02:17;;;;;;;14.97;7.90;;;;;;;19.44;65.16;102342.72;4911251;28;97847;-45
2022/10/18 01:04:46;;;;;;;12.77;7.10;;;;;;;19.42;65.42;102342.47;4906623;28;97279;-46
2022/10/18 01:07:15;;;;;;;9.20;6.90;;;;;;;19.40;65.52;102336.66;4908238;28;97276;-47
2022/10/18 01:10:07;;;;;;;11.00;6.80;;;;;;;19.39;65.38;102340.72;4907860;28;97208;-46
2022/10/18 01:12:41;;;;;;;10.57;6.23;;;;;;;19.37;65.55;102337.66;4904606;28;101717;-47
2022/10/18 01:15:22;;;;;;;17.20;7.00;;;;;;;19.37;65.29;102348.09;4908533;28;99997;-49
2022/10/18 01:18:10;;;;;;;13.60;7.00;;;;;;;19.32;65.57;102341.22;4907847;28;96956;-47
2022/10/18 01:21:02;;;;;;;7.20;6.50;;;;;;;19.31;65.61;102341.72;4909499;28;97138;-47
2022/10/18 01:23:59;;;;;;;8.47;6.37;;;;;;;19.25;65.52;102327.78;4907743;28;101355;-44
2022/10/18 01:26:34;;;;;;;13.67;5.70;;;;;;;19.26;65.52;102326.50;4907438;28;100212;-47
2022/10/18 01:29:27;;;;;;;7.90;6.87;;;;;;;19.25;65.55;102327.03;4909297;28;97732;-46
2022/10/18 01:31:57;;;;;;;9.27;6.43;;;;;;;19.24;65.53;102323.47;4911483;28;103434;-46
2022/10/18 01:34:25;;;;;;;8.60;6.90;;;;;;;19.23;65.56;102327.53;4905062;28;100602;-46
2022/10/18 01:36:54;;;;;;;11.00;7.40;;;;;;;19.23;65.44;102327.53;4905421;28;100156;-45
2022/10/18 01:39:26;;;;;;;10.37;6.97;;;;;;;19.24;65.53;102322.72;4906689;28;98236;-45
2022/10/18 01:41:53;;;;;;;17.93;6.87;;;;;;;19.22;65.65;102314.84;4899475;28;97336;-45
2022/10/18 01:44:22;;;;;;;12.40;8.03;;;;;;;19.22;65.58;102317.63;4905276;28;97776;-47
2022/10/18 01:46:49;;;;;;;15.17;8.00;;;;;;;19.23;65.37;102315.63;4910790;28;97170;-46
2022/10/18 01:49:14;;;;;;;13.53;8.50;;;;;;;19.22;65.40;102311.31;4906001;28;96809;-45
2022/10/18 01:51:40;;;;;;;16.60;7.57;;;;;;;19.21;65.24;102309.78;4909025;28;102925;-47
2022/10/18 01:54:05;;;;;;;8.60;7.70;;;;;;;19.19;65.62;102315.91;4911079;28;101792;-46
2022/10/18 01:56:51;;;;;;;10.47;8.37;;;;;;;19.18;65.77;102308.00;4910254;28;97563;-46
2022/10/18 01:59:31;;;;;;;8.93;7.57;;;;;;;19.16;65.70;102305.75;4905569;28;100973;-47
2022/10/18 02:01:56;;;;;;;11.00;7.80;;;;;;;19.14;65.60;102304.72;4905505;28;96755;-46
2022/10/18 02:04:36;;;;;;;10.83;7.77;;;;;;;19.10;65.64;102315.41;4903913;28;97015;-49
2022/10/18 02:07:14;;;;;;;8.60;7.70;;;;;;;19.09;65.76;102300.69;4907545;28;97393;-44
2022/10/18 02:09:49;;;;;;;10.63;7.30;;;;;;;19.07;65.73;102292.06;4908265;28;97121;-49
2022/10/18 02:12:16;;;;;;;8.50;7.50;;;;;;;19.07;65.51;102296.88;4906527;28;97108;-45
2022/10/18 02:14:44;;;;;;;20.10;7.33;;;;;;;19.05;65.67;102291.06;4908176;28;98661;-46
2022/10/18 02:17:11;;;;;;;24.07;7.70;;;;;;;19.05;65.66;102282.69;4906764;28;96952;-46
2022/10/18 02:19:48;;;;;;;14.73;8.20;;;;;;;19.04;65.97;102286.75;4905330;28;97509;-45
2022/10/18 02:22:15;;;;;;;10.30;7.43;;;;;;;19.01;65.63;102279.41;4906078;28;96898;-51
2022/10/18 02:24:47;;;;;;;12.03;7.90;;;;;;;18.99;65.54;102282.72;4906754;28;97473;-48
2022/10/18 02:27:13;;;;;;;20.77;8.53;;;;;;;18.98;65.74;102294.41;4908103;28;97167;-46
2022/10/18 02:29:40;;;;;;;10.23;8.03;;;;;;;18.95;65.64;102289.84;4908344;28;97048;-50
2022/10/18 02:32:12;;;;;;;10.83;7.67;;;;;;;18.93;65.71;102281.22;4907265;28;97330;-49
2022/10/18 02:34:48;;;;;;;8.03;7.10;;;;;;;18.92;65.67;102288.06;4906913;28;103019;-46
2022/10/18 02:37:15;;;;;;;10.27;8.77;;;;;;;18.88;65.70;102285.53;4896886;28;101672;-46
2022/10/18 02:39:47;;;;;;;13.33;8.73;;;;;;;18.85;65.64;102297.69;4904857;28;97022;-48
2022/10/18 02:42:13;;;;;;;23.00;8.77;;;;;;;18.80;65.83;102289.38;4906259;28;97352;-47
2022/10/18 02:44:38;;;;;;;8.80;7.57;;;;;;;18.81;65.83;102288.84;4906213;28;98634;-47
2022/10/18 02:47:05;;;;;;;13.93;7.40;;;;;;;18.82;65.75;102292.41;4906924;28;104224;-45
2022/10/18 02:49:31;;;;;;;10.93;8.30;;;;;;;18.81;65.60;102293.66;4904308;28;97308;-47
2022/10/18 02:51:56;;;;;;;11.43;7.60;;;;;;;18.79;65.84;102294.16;4898959;28;101423;-46
2022/10/18 02:54:22;;;;;;;10.77;8.63;;;;;;;18.78;65.83;102289.88;4902975;28;97220;-47
2022/10/18 02:56:47;;;;;;;9.27;7.57;;;;;;;18.78;65.91;102287.09;4907249;28;97126;-49
2022/10/18 02:59:13;;;;;;;9.60;8.00;;;;;;;18.77;65.75;102285.56;4906618;28;97356;-45
2022/10/18 03:01:38;;;;;;;14.33;8.40;;;;;;;18.76;65.87;102284.06;4906761;28;97639;-45
2022/10/18 03:04:04;;;;;;;9.70;8.13;;;;;;;18.75;65.71;102281.75;4903510;28;108465;-46
2022/10/18 03:06:30;;;;;;;9.67;7.60;;;;;;;18.72;65.78;102286.31;4901926;28;98360;-46
2022/10/18 03:08:55;;;;;;;10.20;8.30;;;;;;;18.69;65.76;102279.75;4907704;28;97489;-45
2022/10/18 03:11:21;;;;;;;13.23;8.97;;;;;;;18.68;65.74;102280.25;4907347;28;97414;-47
2022/10/18 03:13:47;;;;;;;15.60;8.40;;;;;;;18.67;65.78;102278.75;4903734;28;97555;-51
2022/10/18 03:16:12;;;;;;;8.60;7.67;;;;;;;18.66;65.86;102274.41;4907335;28;97206;-47
2022/10/18 03:18:37;;;;;;;10.37;7.57;;;;;;;18.65;65.75;102281.28;4903326;28;96934;-45
2022/10/18 03:21:06;;;;;;;8.77;7.33;;;;;;;18.64;65.83;102277.72;4907816;28;97257;-48
2022/10/18 03:23:33;;;;;;;12.40;8.47;;;;;;;18.62;65.84;102282.28;4907809;28;97706;-47
2022/10/18 03:25:58;;;;;;;9.87;7.03;;;;;;;18.59;65.73;102278.50;4908475;28;97219;-45
2022/10/18 03:28:23;;;;;;;12.10;7.70;;;;;;;18.58;65.61;102279.00;4906796;28;97192;-49
2022/10/18 03:30:48;;;;;;;13.47;8.37;;;;;;;18.56;65.77;102276.75;4907607;28;97291;-50
2022/10/18 03:33:14;;;;;;;14.60;8.10;;;;;;;18.53;65.75;102276.97;4902972;28;113802;-46
2022/10/18 03:35:39;;;;;;;13.83;7.77;;;;;;;18.51;65.77;102269.13;4906920;28;105796;-45
2022/10/18 03:38:04;;;;;;;10.47;8.17;;;;;;;18.47;65.71;102262.28;4907625;28;101885;-47
2022/10/18 03:40:30;;;;;;;9.97;8.00;;;;;;;18.46;65.86;102257.97;4902792;28;96980;-47
2022/10/18 03:42:55;;;;;;;15.80;8.07;;;;;;;18.43;65.86;102258.97;4902437;28;97913;-44
2022/10/18 03:45:20;;;;;;;10.90;7.50;;;;;;;18.41;65.87;102265.03;4904362;28;106414;-45
2022/10/18 03:47:46;;;;;;;10.33;7.40;;;;;;;18.40;65.91;102257.19;4904836;28;107434;-46
2022/10/18 03:50:11;;;;;;;12.50;7.50;;;;;;;18.38;65.90;102265.31;4892812;28;98338;-47
2022/10/18 03:52:36;;;;;;;8.90;7.07;;;;;;;18.36;65.98;102263.03;4900471;28;97765;-50
2022/10/18 03:55:02;;;;;;;9.83;6.27;;;;;;;18.36;65.91;102267.84;4898552;28;97108;-45
2022/10/18 03:57:28;;;;;;;12.67;7.70;;;;;;;18.36;65.95;102268.59;4896653;28;97524;-47
2022/10/18 03:59:53;;;;;;;10.30;6.60;;;;;;;18.35;65.78;102263.53;4898654;28;97441;-47
2022/10/18 04:02:18;;;;;;;8.57;7.27;;;;;;;18.34;66.05;102260.00;4891747;28;96925;-48
2022/10/18 04:04:43;;;;;;;12.40;8.07;;;;;;;18.32;65.91;102262.53;4901892;28;102775;-46
2022/10/18 04:07:09;;;;;;;8.30;6.80;;;;;;;18.31;65.83;102260.22;4905590;28;104151;-49
2022/10/18 04:09:34;;;;;;;8.93;6.97;;;;;;;18.29;65.74;102257.97;4905085;28;97133;-47
2022/10/18 04:11:59;;;;;;;7.03;6.33;;;;;;;18.27;65.94;102268.09;4902209;28;97358;-48
2022/10/18 04:14:25;;;;;;;14.30;7.50;;;;;;;18.26;65.71;102261.03;4901535;28;109289;-49
2022/10/18 04:16:50;;;;;;;18.77;7.10;;;;;;;18.27;65.85;102270.88;4903180;28;97323;-50
2022/10/18 04:19:16;;;;;;;8.30;6.90;;;;;;;18.24;65.79;102266.34;4902088;28;97979;-46
2022/10/18 04:21:41;;;;;;;10.87;7.37;;;;;;;18.23;65.84;102270.38;4902183;28;96790;-45
2022/10/18 04:24:06;;;;;;;8.87;6.93;;;;;;;18.22;65.67;102269.63;4908157;28;96806;-48
2022/10/18 04:26:32;;;;;;;13.60;6.57;;;;;;;18.20;65.73;102271.38;4904077;28;98811;-46
2022/10/18 04:28:57;;;;;;;7.57;6.47;;;;;;;18.17;65.74;102278.75;4905421;28;96682;-48
2022/10/18 04:31:22;;;;;;;7.57;6.27;;;;;;;18.15;65.61;102269.38;4905111;28;117643;-46
2022/10/18 04:33:48;;;;;;;10.70;7.70;;;;;;;18.12;65.72;102262.78;4904961;28;96829;-47
2022/10/18 04:36:13;;;;;;;10.00;7.07;;;;;;;18.07;65.88;102269.09;4903055;28;99942;-49
2022/10/18 04:38:38;;;;;;;12.73;7.37;;;;;;;18.05;65.86;102262.50;4900982;28;97474;-51
2022/10/18 04:41:04;;;;;;;14.83;7.57;;;;;;;18.06;65.80;102272.41;4906998;28;97375;-47
2022/10/18 04:43:29;;;;;;;9.17;6.93;;;;;;;18.05;65.86;102270.88;4905110;28;98834;-46
2022/10/18 04:45:55;;;;;;;10.97;7.10;;;;;;;18.02;65.87;102271.91;4904003;28;97449;-46
2022/10/18 04:48:20;;;;;;;12.63;7.97;;;;;;;17.97;65.87;102268.56;4906957;28;97065;-49
2022/10/18 04:50:49;;;;;;;9.23;7.73;;;;;;;17.94;66.02;102274.41;4901112;28;97401;-45
2022/10/18 04:53:16;;;;;;;8.07;6.90;;;;;;;17.92;65.99;102279.72;4904381;28;100466;-45
2022/10/18 04:55:47;;;;;;;13.90;7.20;;;;;;;17.92;65.98;102279.72;4904684;28;97148;-46
2022/10/18 04:58:13;;;;;;;12.27;7.97;;;;;;;17.92;65.97;102268.59;4902090;28;96688;-45
2022/10/18 05:00:39;;;;;;;9.40;7.33;;;;;;;17.90;66.08;102277.44;4905667;28;97753;-46
2022/10/18 05:03:05;;;;;;;11.07;8.70;;;;;;;17.90;65.95;102277.44;4903834;28;97215;-48
2022/10/18 05:05:30;;;;;;;17.23;8.20;;;;;;;17.92;66.03;102279.72;4903542;28;96824;-46
2022/10/18 05:07:55;;;;;;;13.67;6.60;;;;;;;17.91;65.97;102262.25;4902205;28;97278;-46
2022/10/18 05:10:21;;;;;;;12.10;7.73;;;;;;;17.92;66.07;102261.00;4896043;28;113533;-48
2022/10/18 05:12:46;;;;;;;16.03;7.70;;;;;;;17.92;66.01;102269.34;4923573;28;104204;-47
2022/10/18 05:15:11;;;;;;;9.40;7.03;;;;;;;17.92;65.93;102261.00;4903596;28;98563;-45
2022/10/18 05:17:37;;;;;;;10.70;7.17;;;;;;;17.87;65.91;102261.75;4892726;28;97480;-46
2022/10/18 05:20:03;;;;;;;10.90;7.70;;;;;;;17.86;66.07;102260.22;4910606;28;97274;-44
2022/10/18 05:22:28;;;;;;;9.20;7.13;;;;;;;17.88;65.93;102271.63;4906891;28;98832;-48
2022/10/18 05:24:53;;;;;;;11.60;7.17;;;;;;;17.89;65.89;102275.91;4910253;28;97531;-47
2022/10/18 05:27:19;;;;;;;13.13;7.43;;;;;;;17.90;65.94;102263.53;4908279;28;101305;-50
2022/10/18 05:29:44;;;;;;;17.40;7.40;;;;;;;17.91;66.04;102264.25;4905976;28;97337;-49
2022/10/18 05:32:10;;;;;;;11.87;7.10;;;;;;;17.92;66.09;102274.91;4909731;28;98423;-45
2022/10/18 05:34:35;;;;;;;13.10;7.23;;;;;;;17.94;66.20;102271.63;4909072;28;96982;-48
2022/10/18 05:37:00;;;;;;;22.90;8.30;;;;;;;17.95;66.19;102271.09;4904170;28;97117;-49
2022/10/18 05:39:26;;;;;;;14.70;8.80;;;;;;;17.96;66.03;102269.84;4905574;28;98841;-47
2022/10/18 05:41:51;;;;;;;23.80;12.20;;;;;;;17.96;66.17;102269.84;4907274;28;97251;-45
2022/10/18 05:44:16;;;;;;;21.60;10.27;;;;;;;17.95;66.21;102271.09;4904407;28;99130;-47
2022/10/18 05:46:42;;;;;;;24.27;10.40;;;;;;;17.97;66.24;102267.84;4904621;28;96932;-45
2022/10/18 05:49:10;;;;;;;24.33;12.80;;;;;;;18.00;66.07;102268.84;4906161;28;97452;-48
2022/10/18 05:51:36;;;;;;;21.97;12.40;;;;;;;18.01;66.17;102284.28;4905920;28;101286;-46
2022/10/18 05:54:01;;;;;;;30.67;12.10;;;;;;;18.00;66.29;102286.31;4907504;28;97328;-45
2022/10/18 05:56:26;;;;;;;24.10;13.23;;;;;;;18.01;66.36;102282.28;4908218;28;98866;-46
2022/10/18 05:58:52;;;;;;;28.80;13.20;;;;;;;18.02;66.54;102286.56;4906114;28;100873;-48
2022/10/18 06:01:18;;;;;;;25.93;12.47;;;;;;;18.03;66.28;102287.31;4910945;28;97555;-45
2022/10/18 06:03:43;;;;;;;25.90;12.50;;;;;;;18.03;66.38;102306.81;4906735;28;97226;-44
2022/10/18 06:06:10;;;;;;;24.30;13.73;;;;;;;18.04;66.34;102297.22;4909175;28;97210;-47
2022/10/18 06:08:38;;;;;;;24.53;13.07;;;;;;;18.05;66.22;102293.91;4907815;28;97518;-45
2022/10/18 06:11:08;;;;;;;22.90;13.07;;;;;;;18.08;66.35;102292.16;4910566;28;98247;-48
2022/10/18 06:13:33;;;;;;;25.67;13.57;;;;;;;18.06;66.43;102306.59;4907408;28;97133;-47
2022/10/18 06:15:59;;;;;;;26.80;13.60;;;;;;;18.08;66.42;102298.50;4906833;28;96936;-46
2022/10/18 06:18:24;;;;;;;17.10;12.57;;;;;;;18.09;66.48;102302.78;4906630;28;97421;-44
2022/10/18 06:20:56;;;;;;;18.20;11.37;;;;;;;18.12;66.28;102307.34;4908640;28;97294;-50
2022/10/18 06:23:22;;;;;;;19.57;12.40;;;;;;;18.13;66.44;102303.28;4905966;28;97297;-46
2022/10/18 06:25:47;;;;;;;14.43;10.87;;;;;;;18.15;66.29;102311.16;4904741;28;98741;-49
2022/10/18 06:28:12;;;;;;;17.37;11.57;;;;;;;18.16;66.48;102326.59;4909664;28;97249;-50
2022/10/18 06:30:37;;;;;;;16.47;11.50;;;;;;;18.17;66.54;102319.78;4905968;28;111716;-47
2022/10/18 06:33:03;;;;;;;20.10;12.83;;;;;;;18.17;66.42;102309.41;4907326;28;96986;-45
2022/10/18 06:35:28;;;;;;;27.67;13.27;;;;;;;18.18;66.48;102313.69;4907406;28;97415;-46
2022/10/18 06:37:53;;;;;;;20.57;12.27;;;;;;;18.19;66.59;102323.59;4905750;28;115133;-47
2022/10/18 06:40:19;;;;;;;21.10;12.27;;;;;;;18.20;66.52;102336.22;4900503;28;97091;-45
2022/10/18 06:42:46;;;;;;;25.00;12.60;;;;;;;18.22;66.45;102338.50;4904237;28;97053;-48
2022/10/18 06:45:11;;;;;;;22.40;13.23;;;;;;;18.22;66.56;102342.06;4908526;28;97266;-46
2022/10/18 06:47:36;;;;;;;19.40;12.97;;;;;;;18.22;66.61;102341.28;4907033;28;100478;-47
2022/10/18 06:50:02;;;;;;;19.83;12.60;;;;;;;18.24;66.77;102352.72;4905347;28;96848;-46
2022/10/18 06:52:27;;;;;;;19.17;12.07;;;;;;;18.23;66.63;102345.59;4909407;28;97378;-45
2022/10/18 06:54:52;;;;;;;18.13;12.97;;;;;;;18.24;66.87;102344.34;4905347;28;97323;-44
2022/10/18 06:57:19;;;;;;;19.97;13.00;;;;;;;18.24;66.72;102342.31;4905824;28;114675;-47
2022/10/18 06:59:44;;;;;;;19.30;13.20;;;;;;;18.25;66.65;102338.28;4907162;28;97258;-51
2022/10/18 07:02:16;;;;;;;26.60;13.27;;;;;;;18.26;66.78;102339.78;4908305;28;97004;-48
2022/10/18 07:04:41;;;;;;;17.60;13.13;;;;;;;18.26;66.66;102330.69;4908037;28;96945;-45
2022/10/18 07:07:07;;;;;;;25.20;12.43;;;;;;;18.29;66.70;102340.78;4905691;28;97051;-49
2022/10/18 07:09:32;;;;;;;22.10;13.30;;;;;;;18.30;66.83;102340.31;4905564;28;113426;-46
2022/10/18 07:11:57;;;;;;;19.40;13.77;;;;;;;18.31;66.74;102352.19;4906183;28;97091;-45
2022/10/18 07:14:22;;;;;;;20.20;13.20;;;;;;;18.34;66.81;102356.78;4906934;28;107431;-46
2022/10/18 07:16:48;;;;;;;18.30;13.40;;;;;;;18.36;66.64;102354.22;4905221;28;107887;-47
2022/10/18 07:19:13;;;;;;;21.23;12.77;;;;;;;18.36;66.79;102343.09;4904950;28;97147;-45
2022/10/18 07:21:39;;;;;;;26.00;14.27;;;;;;;18.37;66.81;102339.06;4905735;28;96718;-45
2022/10/18 07:24:04;;;;;;;20.20;13.37;;;;;;;18.40;66.95;102351.94;4908663;28;97056;-46
2022/10/18 07:26:32;;;;;;;21.97;13.67;;;;;;;18.43;66.69;102362.09;4903729;28;98768;-45
2022/10/18 07:29:09;;;;;;;22.87;13.80;;;;;;;18.46;66.87;102361.09;4903550;28;104283;-46
2022/10/18 07:31:37;;;;;;;23.60;14.30;;;;;;;18.46;66.82;102358.31;4906273;28;97041;-47
2022/10/18 07:34:03;;;;;;;24.20;15.10;;;;;;;18.48;66.75;102355.78;4909105;28;97344;-45
2022/10/18 07:36:29;;;;;;;20.53;13.77;;;;;;;18.49;66.70;102360.88;4905637;28;97914;-47
2022/10/18 07:38:54;;;;;;;18.00;13.57;;;;;;;18.50;66.82;102356.06;4903627;28;107839;-46
2022/10/18 07:41:20;;;;;;;18.03;12.80;;;;;;;18.52;66.94;102359.09;4905137;28;102898;-44
2022/10/18 07:43:49;;;;;;;21.97;13.80;;;;;;;18.55;66.72;102360.84;4907066;28;97091;-47
2022/10/18 07:46:15;;;;;;;19.60;13.70;;;;;;;18.59;66.90;102353.00;4904432;28;100758;-45
2022/10/18 07:48:41;;;;;;;19.93;12.77;;;;;;;18.61;66.86;102356.03;4905556;28;97380;-46
2022/10/18 07:51:07;;;;;;;21.20;13.10;;;;;;;18.62;67.01;102340.84;4906353;28;97524;-47
2022/10/18 07:53:33;;;;;;;20.00;14.13;;;;;;;18.62;66.77;102346.41;4904870;28;97097;-45
2022/10/18 07:56:05;;;;;;;21.20;13.83;;;;;;;18.65;66.83;102346.16;4907718;28;97246;-49
2022/10/18 07:58:31;;;;;;;20.17;12.87;;;;;;;18.68;66.77;102358.31;4905233;28;98533;-48
2022/10/18 08:00:57;;;;;;;16.50;12.67;;;;;;;18.71;66.81;102346.16;4906789;28;97004;-45
2022/10/18 08:03:22;;;;;;;19.53;13.73;;;;;;;18.75;66.61;102348.69;4904664;28;96849;-45
2022/10/18 08:05:54;;;;;;;19.20;13.43;;;;;;;18.78;67.06;102345.66;4907047;28;97283;-45
2022/10/18 08:08:21;;;;;;;17.73;13.10;;;;;;;18.81;66.84;102350.19;4906416;28;97288;-48
2022/10/18 08:10:46;;;;;;;18.00;12.67;;;;;;;18.85;66.94;102353.47;4906336;28;96991;-48
2022/10/18 08:13:12;;;;;;;21.80;12.77;;;;;;;18.89;66.77;102354.00;4905497;28;97306;-45
2022/10/18 08:15:37;;;;;;;24.77;13.70;;;;;;;18.92;66.83;102346.63;4903278;28;97219;-47
2022/10/18 08:18:02;;;;;;;19.33;13.80;;;;;;;18.97;66.90;102351.44;4905081;28;109480;-45
2022/10/18 08:20:29;;;;;;;19.47;13.53;;;;;;;19.00;66.58;102358.81;4905280;28;99050;-48
2022/10/18 08:22:54;;;;;;;20.90;14.50;;;;;;;19.00;66.84;102356.75;4900984;28;97106;-46
2022/10/18 08:25:20;;;;;;;19.60;14.43;;;;;;;19.01;66.88;102361.09;4905104;28;102460;-47
2022/10/18 08:27:45;;;;;;;21.57;14.13;;;;;;;19.02;66.77;102359.81;4903963;28;115135;-45
2022/10/18 08:30:11;;;;;;;17.10;12.50;;;;;;;19.05;66.74;102364.38;4906690;28;97248;-50
2022/10/18 08:32:36;;;;;;;17.00;12.30;;;;;;;19.06;66.61;102365.13;4907717;28;96857;-48
2022/10/18 08:35:01;;;;;;;18.83;12.50;;;;;;;19.06;66.46;102371.47;4905944;28;99101;-45
2022/10/18 08:37:27;;;;;;;33.30;14.57;;;;;;;19.06;66.74;102374.25;4904788;28;97307;-48
2022/10/18 08:39:52;;;;;;;21.13;13.97;;;;;;;19.07;66.64;102372.22;4899986;28;110938;-47
2022/10/18 08:42:29;;;;;;;19.90;13.40;;;;;;;19.08;66.77;102370.97;4903110;28;99596;-46
2022/10/18 08:44:55;;;;;;;17.43;12.27;;;;;;;19.10;66.92;102374.75;4902366;28;97749;-50
2022/10/18 08:47:33;;;;;;;24.07;14.50;;;;;;;19.13;66.69;102382.09;4908114;28;97140;-46
2022/10/18 08:50:04;;;;;;;24.90;13.60;;;;;;;19.14;66.59;102371.69;4908384;28;97389;-46
2022/10/18 08:52:55;;;;;;;19.27;12.30;;;;;;;19.15;66.76;102382.38;4906038;28;97032;-47
2022/10/18 08:55:47;;;;;;;15.17;11.83;;;;;;;19.12;66.71;102388.19;4907169;28;101821;-52
2022/10/18 08:58:25;;;;;;;20.87;11.50;;;;;;;19.06;66.67;102391.00;4907626;28;97963;-46
2022/10/18 09:01:05;;;;;;;23.03;10.90;;;;;;;19.06;66.69;102384.66;4909956;28;97366;-45
2022/10/18 09:03:49;;;;;;;17.53;10.90;;;;;;;19.07;67.03;102394.53;4908718;28;97811;-45
2022/10/18 09:06:31;;;;;;;16.07;10.17;;;;;;;19.08;66.73;102398.84;4909511;28;98045;-47
2022/10/18 09:09:29;;;;;;;13.57;9.93;;;;;;;19.06;66.62;102404.97;4907139;28;100032;-49
2022/10/18 09:12:06;;;;;;;12.50;9.23;;;;;;;19.06;66.64;102402.16;4905605;28;97284;-46
2022/10/18 09:14:46;;;;;;;12.57;9.70;;;;;;;19.02;66.55;102398.88;4911032;28;97034;-45
2022/10/18 09:17:12;;;;;;;13.97;9.40;;;;;;;18.97;66.60;102393.28;4901720;28;101619;-47
2022/10/18 09:19:58;;;;;;;12.93;9.03;;;;;;;18.99;66.47;102390.75;4906948;28;97076;-45
2022/10/18 09:23:04;;;;;;;12.03;7.97;;;;;;;19.02;66.82;102401.66;4908320;28;97393;-45
2022/10/18 09:26:04;;;;;;;18.20;7.90;;;;;;;19.00;66.53;102409.75;4905335;28;97653;-45
2022/10/18 09:28:32;;;;;;;11.83;8.33;;;;;;;18.96;66.57;102405.72;4900956;28;100617;-45
2022/10/18 09:31:17;;;;;;;16.23;8.50;;;;;;;18.95;66.39;102399.38;4907019;28;97267;-46
2022/10/18 09:33:57;;;;;;;14.37;7.77;;;;;;;18.95;66.41;102407.00;4908202;28;97233;-46
2022/10/18 09:36:26;;;;;;;12.83;7.10;;;;;;;19.01;66.32;102414.09;4907003;28;96797;-49
2022/10/18 09:38:56;;;;;;;11.33;7.33;;;;;;;19.06;66.44;102413.34;4908404;28;100422;-45
2022/10/18 09:41:36;;;;;;;11.00;7.40;;;;;;;19.10;66.39;102407.47;4907262;28;97676;-46
2022/10/18 09:44:07;;;;;;;13.17;6.90;;;;;;;19.12;66.28;102414.06;4908271;28;96859;-45
2022/10/18 09:46:39;;;;;;;7.93;6.30;;;;;;;19.15;66.00;102418.66;4910364;28;97620;-48
2022/10/18 09:49:15;;;;;;;22.13;7.17;;;;;;;19.16;65.87;102422.19;4906017;28;100427;-46
2022/10/18 09:51:42;;;;;;;9.67;7.30;;;;;;;19.12;65.91;102428.03;4907590;28;100329;-45
2022/10/18 09:54:26;;;;;;;10.97;7.30;;;;;;;19.05;65.64;102431.31;4909085;28;96865;-47
2022/10/18 09:57:08;;;;;;;10.30;6.40;;;;;;;18.98;65.55;102426.25;4908439;28;96991;-45
2022/10/18 09:59:41;;;;;;;9.07;7.40;;;;;;;18.93;65.53;102410.31;4906671;28;97832;-48
2022/10/18 10:02:12;;;;;;;8.07;6.60;;;;;;;18.94;65.63;102411.03;4909716;28;97173;-49
2022/10/18 10:04:38;;;;;;;9.27;7.20;;;;;;;18.93;65.57;102413.09;4906776;28;97369;-48
2022/10/18 10:07:07;;;;;;;10.40;7.20;;;;;;;18.99;65.78;102419.41;4907267;28;96880;-47
2022/10/18 10:09:43;;;;;;;15.67;7.80;;;;;;;19.07;65.38;102414.84;4907888;28;98799;-46
2022/10/18 10:12:29;;;;;;;15.13;6.83;;;;;;;19.18;65.53;102414.81;4906783;28;98859;-47
2022/10/18 10:15:19;;;;;;;11.73;7.13;;;;;;;19.31;65.19;102426.22;4902991;28;97275;-47
2022/10/18 10:18:00;;;;;;;11.37;6.80;;;;;;;19.33;64.59;102418.09;4906717;28;97013;-45
2022/10/18 10:20:42;;;;;;;8.07;5.90;;;;;;;19.30;64.43;102409.97;4905060;28;97144;-45
2022/10/18 10:23:18;;;;;;;13.03;6.80;;;;;;;19.36;64.72;102416.34;4905053;28;101638;-46
2022/10/18 10:25:50;;;;;;;10.13;6.80;;;;;;;19.43;64.83;102419.38;4906382;28;97137;-48
2022/10/18 10:28:45;;;;;;;8.90;6.20;;;;;;;19.50;64.62;102415.28;4907792;28;97213;-46
2022/10/18 10:31:25;;;;;;;8.53;6.07;;;;;;;19.57;64.37;102428.72;4907962;28;104131;-45
2022/10/18 10:34:03;;;;;;;9.20;6.43;;;;;;;19.58;63.56;102421.09;4910180;28;102705;-45
2022/10/18 10:36:30;;;;;;;9.60;6.20;;;;;;;19.55;64.04;102419.34;4905498;28;97332;-45
2022/10/18 10:39:04;;;;;;;13.97;6.80;;;;;;;19.47;63.92;102426.72;4908231;28;96730;-46
2022/10/18 10:41:30;;;;;;;8.00;5.47;;;;;;;19.45;64.13;102418.84;4908052;28;97968;-45
2022/10/18 10:43:55;;;;;;;8.20;5.73;;;;;;;19.42;64.16;102420.63;4899252;28;97084;-45
2022/10/18 10:46:22;;;;;;;10.33;6.13;;;;;;;19.46;64.10;102405.66;4908740;28;96725;-44
2022/10/18 10:48:56;;;;;;;11.90;6.53;;;;;;;19.56;63.82;102412.47;4906388;28;97446;-47
2022/10/18 10:51:33;;;;;;;9.20;6.63;;;;;;;19.59;63.43;102401.06;4907496;28;97897;-46
2022/10/18 10:54:07;;;;;;;8.33;5.53;;;;;;;19.61;64.14;102400.53;4903217;28;103538;-49
2022/10/18 10:56:36;;;;;;;14.63;6.17;;;;;;;19.65;64.05;102410.16;4909574;28;96745;-45
2022/10/18 10:59:17;;;;;;;10.47;6.03;;;;;;;19.74;63.40;102409.13;4906936;28;97409;-45
2022/10/18 11:01:46;;;;;;;6.53;5.70;;;;;;;19.73;63.47;102407.59;4905885;28;102178;-46
2022/10/18 11:04:26;;;;;;;8.60;5.70;;;;;;;19.77;62.54;102414.44;4906612;28;97338;-45
2022/10/18 11:06:54;;;;;;;6.97;4.80;;;;;;;19.76;63.57;102412.16;4906801;28;97605;-46
2022/10/18 11:09:38;;;;;;;8.17;5.20;;;;;;;19.88;62.74;102406.00;4907011;28;98890;-49
2022/10/18 11:12:17;;;;;;;6.67;4.60;;;;;;;20.04;61.94;102415.56;4905546;28;97659;-47
2022/10/18 11:14:49;;;;;;;10.67;4.27;;;;;;;20.15;62.63;102409.94;4905470;28;97200;-45
2022/10/18 11:17:14;;;;;;;9.03;5.27;;;;;;;20.28;62.73;102400.97;4903972;28;97370;-47
2022/10/18 11:20:05;;;;;;;7.60;4.67;;;;;;;20.39;61.33;102401.69;4904293;28;96952;-46
2022/10/18 11:22:45;;;;;;;6.67;3.87;;;;;;;20.53;62.08;102400.53;4905124;28;101466;-45
2022/10/18 11:25:14;;;;;;;7.10;3.57;;;;;;;20.62;61.78;102400.22;4904824;28;96785;-45